createdAt,value
2019-06-07T00:00:33.574Z,12.59
2019-06-07T00:01:16.471Z,12.56
2019-06-07T00:02:16.429Z,12.66
2019-06-07T00:03:26.639Z,12.74
2019-06-07T00:04:16.097Z,12.63
2019-06-07T00:05:18.642Z,12.60
2019-06-07T00:06:20.357Z,12.62
2019-06-07T00:07:17.762Z,12.69
2019-06-07T00:08:22.500Z,12.66
2019-06-07T00:09:17.836Z,12.59
2019-06-07T00:10:31.389Z,12.67
2019-06-07T00:11:18.603Z,12.63
2019-06-07T00:12:17.596Z,12.78
2019-06-07T00:13:18.795Z,12.77
2019-06-07T00:14:16.592Z,12.63
2019-06-07T00:15:21.932Z,12.66
2019-06-07T00:16:20.844Z,12.66
2019-06-07T00:17:17.640Z,12.63
2019-06-07T00:18:23.118Z,12.69
2019-06-07T00:19:16.252Z,12.75
2019-06-07T00:20:22.659Z,12.66
2019-06-07T00:21:17.854Z,12.66
2019-06-07T00:22:29.134Z,12.66
2019-06-07T00:23:22.091Z,12.64
2019-06-07T00:24:16.816Z,12.63
2019-06-07T00:25:22.735Z,12.60
2019-06-07T00:26:18.174Z,12.66
2019-06-07T00:27:18.266Z,12.66
2019-06-07T00:28:17.320Z,12.74
2019-06-07T00:29:18.839Z,12.66
2019-06-07T00:30:35.949Z,12.63
2019-06-07T00:31:21.928Z,12.64
2019-06-07T00:32:19.978Z,12.59
2019-06-07T00:33:20.555Z,12.57
2019-06-07T00:34:19.110Z,12.62
2019-06-07T00:35:19.391Z,12.66
2019-06-07T00:36:18.168Z,12.57
2019-06-07T00:37:19.796Z,12.62
2019-06-07T00:38:19.016Z,12.64
2019-06-07T00:39:20.280Z,12.70
2019-06-07T00:40:25.407Z,12.64
2019-06-07T00:41:20.226Z,12.60
2019-06-07T00:42:19.361Z,12.64
2019-06-07T00:43:19.225Z,12.49
2019-06-07T00:44:19.822Z,12.56
2019-06-07T00:45:19.023Z,12.52
2019-06-07T00:46:18.810Z,12.63
2019-06-07T00:47:21.553Z,12.52
2019-06-07T00:48:27.481Z,12.48
2019-06-07T00:49:32.369Z,12.41
2019-06-07T00:50:21.026Z,12.41
2019-06-07T00:51:18.973Z,12.39
2019-06-07T00:53:07.035Z,12.45
2019-06-07T00:53:26.954Z,12.37
2019-06-07T00:54:19.897Z,12.26
2019-06-07T00:55:19.566Z,12.30
2019-06-07T00:56:20.311Z,12.29
2019-06-07T00:57:19.362Z,12.26
2019-06-07T00:58:21.227Z,12.21
2019-06-07T00:59:20.999Z,12.15
2019-06-07T01:00:21.876Z,12.21
2019-06-07T01:01:20.958Z,12.16
2019-06-07T01:02:19.250Z,12.26
2019-06-07T01:03:22.004Z,12.21
2019-06-07T01:04:20.496Z,12.23
2019-06-07T01:05:22.454Z,12.13
2019-06-07T01:06:21.355Z,12.19
2019-06-07T01:07:18.758Z,12.05
2019-06-07T01:08:20.002Z,12.09
2019-06-07T01:09:20.284Z,12.04
2019-06-07T01:10:46.448Z,12.06
2019-06-07T01:11:20.580Z,12.05
2019-06-07T01:12:19.834Z,11.96
2019-06-07T01:13:19.476Z,11.99
2019-06-07T01:14:20.310Z,11.90
2019-06-07T01:15:22.216Z,11.96
2019-06-07T01:16:19.502Z,11.82
2019-06-07T01:17:30.369Z,11.87
2019-06-07T01:18:39.332Z,11.82
2019-06-07T01:19:21.154Z,11.74
2019-06-07T01:20:21.225Z,11.78
2019-06-07T01:21:20.642Z,11.71
2019-06-07T01:22:20.688Z,11.71
2019-06-07T01:24:01.406Z,11.62
2019-06-07T01:24:20.028Z,11.56
2019-06-07T01:25:22.202Z,11.57
2019-06-07T01:26:20.560Z,11.53
2019-06-07T01:27:20.619Z,11.56
2019-06-07T01:28:21.371Z,11.56
2019-06-07T01:29:20.029Z,11.50
2019-06-07T01:30:22.773Z,11.53
2019-06-07T01:31:21.058Z,11.53
2019-06-07T01:32:20.962Z,11.52
2019-06-07T01:33:20.791Z,11.50
2019-06-07T01:34:20.991Z,11.54
2019-06-07T01:35:20.618Z,11.50
2019-06-07T01:36:20.071Z,11.53
2019-06-07T01:37:22.571Z,11.39
2019-06-07T01:38:21.927Z,11.46
2019-06-07T01:39:21.103Z,11.47
2019-06-07T01:40:20.776Z,11.43
2019-06-07T01:41:23.047Z,11.34
2019-06-07T01:42:20.377Z,11.28
2019-06-07T01:43:26.207Z,11.29
2019-06-07T01:44:22.764Z,11.28
2019-06-07T01:45:21.216Z,11.32
2019-06-07T01:46:20.767Z,11.27
2019-06-07T01:47:21.190Z,11.27
2019-06-07T01:48:23.094Z,11.21
2019-06-07T01:49:21.926Z,11.25
2019-06-07T01:50:23.358Z,11.21
2019-06-07T01:51:20.176Z,11.24
2019-06-07T01:52:23.574Z,11.25
2019-06-07T01:53:22.426Z,11.21
2019-06-07T01:54:52.097Z,11.25
2019-06-07T01:55:23.632Z,11.24
2019-06-07T01:56:21.986Z,11.20
2019-06-07T01:57:34.264Z,11.16
2019-06-07T01:58:21.810Z,11.14
2019-06-07T01:59:22.907Z,11.11
2019-06-07T02:00:22.008Z,11.10
2019-06-07T02:01:21.695Z,11.09
2019-06-07T02:02:22.569Z,11.09
2019-06-07T02:03:22.322Z,11.09
2019-06-07T02:04:23.259Z,11.11
2019-06-07T02:05:21.515Z,11.09
2019-06-07T02:06:21.698Z,11.06
2019-06-07T02:07:26.892Z,11.10
2019-06-07T02:08:22.219Z,11.06
2019-06-07T02:09:21.045Z,11.06
2019-06-07T02:10:24.619Z,11.11
2019-06-07T02:11:22.099Z,11.07
2019-06-07T02:12:29.065Z,11.06
2019-06-07T02:13:21.331Z,11.11
2019-06-07T02:14:24.160Z,11.11
2019-06-07T02:15:23.082Z,11.06
2019-06-07T02:16:21.825Z,11.01
2019-06-07T02:17:24.393Z,10.99
2019-06-07T02:18:23.293Z,11.01
2019-06-07T02:19:22.062Z,10.98
2019-06-07T02:20:25.701Z,10.91
2019-06-07T02:21:24.658Z,10.92
2019-06-07T02:22:23.634Z,10.89
2019-06-07T02:23:24.009Z,10.92
2019-06-07T02:24:24.856Z,10.89
2019-06-07T02:25:38.344Z,10.88
2019-06-07T02:26:22.945Z,10.81
2019-06-07T02:27:24.663Z,10.74
2019-06-07T02:28:32.079Z,10.81
2019-06-07T02:29:22.921Z,10.84
2019-06-07T02:30:40.617Z,10.80
2019-06-07T02:31:24.362Z,10.71
2019-06-07T02:32:24.254Z,10.71
2019-06-07T02:33:25.796Z,10.74
2019-06-07T02:34:24.109Z,10.74
2019-06-07T02:35:25.635Z,10.74
2019-06-07T02:36:25.471Z,10.77
2019-06-07T02:37:24.219Z,10.83
2019-06-07T02:38:25.236Z,10.80
2019-06-07T02:39:23.997Z,10.59
2019-06-07T02:40:24.387Z,10.63
2019-06-07T02:41:25.695Z,10.70
2019-06-07T02:42:26.110Z,10.71
2019-06-07T02:43:24.832Z,10.66
2019-06-07T02:44:24.042Z,10.63
2019-06-07T02:45:24.234Z,10.58
2019-06-07T02:46:30.693Z,10.68
2019-06-07T02:47:22.853Z,10.70
2019-06-07T02:48:24.522Z,10.62
2019-06-07T02:49:26.790Z,10.76
2019-06-07T02:50:23.192Z,10.66
2019-06-07T02:51:24.468Z,10.55
2019-06-07T02:52:27.334Z,10.63
2019-06-07T02:53:25.158Z,10.73
2019-06-07T02:54:24.075Z,10.58
2019-06-07T02:55:27.341Z,10.68
2019-06-07T02:56:54.120Z,10.66
2019-06-07T02:57:25.716Z,10.62
2019-06-07T02:58:26.135Z,10.63
2019-06-07T02:59:48.492Z,10.68
2019-06-07T03:00:55.372Z,10.65
2019-06-07T03:01:24.845Z,10.60
2019-06-07T03:02:25.561Z,10.59
2019-06-07T03:03:24.599Z,10.59
2019-06-07T03:04:26.463Z,10.58
2019-06-07T03:05:25.026Z,10.55
2019-06-07T03:06:23.696Z,10.53
2019-06-07T03:07:23.742Z,10.46
2019-06-07T03:08:23.793Z,10.55
2019-06-07T03:09:23.857Z,10.53
2019-06-07T03:10:23.882Z,10.53
2019-06-07T03:11:23.932Z,10.55
2019-06-07T03:12:23.976Z,10.52
2019-06-07T03:13:24.028Z,10.51
2019-06-07T03:14:24.093Z,10.58
2019-06-07T03:15:37.357Z,10.51
2019-06-07T03:16:24.165Z,10.52
2019-06-07T03:17:24.213Z,10.53
2019-06-07T03:18:24.259Z,10.46
2019-06-07T03:19:24.321Z,10.52
2019-06-07T03:20:24.357Z,10.46
2019-06-07T03:21:24.404Z,10.46
2019-06-07T03:22:24.446Z,10.47
2019-06-07T03:23:26.181Z,10.47
2019-06-07T03:24:24.658Z,10.44
2019-06-07T03:25:25.735Z,10.55
2019-06-07T03:26:24.630Z,10.51
2019-06-07T03:27:48.634Z,10.53
2019-06-07T03:28:24.729Z,10.55
2019-06-07T03:29:28.245Z,10.59
2019-06-07T03:30:58.116Z,10.55
2019-06-07T03:31:27.499Z,10.59
2019-06-07T03:32:24.914Z,10.60
2019-06-07T03:33:26.562Z,10.60
2019-06-07T03:34:25.029Z,10.59
2019-06-07T03:35:27.603Z,10.53
2019-06-07T03:36:26.018Z,10.43
2019-06-07T03:37:25.149Z,10.56
2019-06-07T03:38:25.192Z,10.62
2019-06-07T03:39:25.383Z,10.63
2019-06-07T03:40:25.315Z,10.58
2019-06-07T03:41:25.333Z,10.58
2019-06-07T03:42:25.387Z,10.58
2019-06-07T03:43:27.268Z,10.65
2019-06-07T03:44:27.870Z,10.65
2019-06-07T03:45:28.483Z,10.66
2019-06-07T03:46:27.248Z,10.60
2019-06-07T03:47:28.383Z,10.65
2019-06-07T03:48:28.361Z,10.60
2019-06-07T03:49:27.798Z,10.63
2019-06-07T03:50:28.247Z,10.77
2019-06-07T03:51:27.393Z,10.74
2019-06-07T03:52:27.189Z,10.70
2019-06-07T03:53:29.208Z,10.81
2019-06-07T03:54:27.169Z,10.80
2019-06-07T03:55:27.773Z,10.80
2019-06-07T03:56:28.124Z,10.78
2019-06-07T03:57:28.585Z,10.78
2019-06-07T03:58:45.740Z,10.78
2019-06-07T03:59:28.248Z,10.88
2019-06-07T04:00:28.752Z,10.78
2019-06-07T04:01:28.594Z,10.84
2019-06-07T04:02:27.769Z,10.78
2019-06-07T04:03:36.158Z,10.84
2019-06-07T04:04:27.341Z,10.86
2019-06-07T04:05:28.234Z,10.78
2019-06-07T04:06:28.828Z,10.78
2019-06-07T04:07:28.982Z,10.81
2019-06-07T04:08:28.154Z,10.81
2019-06-07T04:09:28.584Z,10.74
2019-06-07T04:10:45.864Z,10.83
2019-06-07T04:11:27.544Z,10.76
2019-06-07T04:12:28.119Z,10.86
2019-06-07T04:13:28.905Z,10.81
2019-06-07T04:14:29.330Z,10.76
2019-06-07T04:15:27.807Z,10.76
2019-06-07T04:16:28.833Z,10.81
2019-06-07T04:17:30.694Z,10.89
2019-06-07T04:18:27.918Z,10.94
2019-06-07T04:19:28.732Z,10.91
2019-06-07T04:20:29.309Z,10.98
2019-06-07T04:21:29.666Z,10.99
2019-06-07T04:22:28.784Z,11.02
2019-06-07T04:23:29.908Z,10.96
2019-06-07T04:24:28.624Z,11.03
2019-06-07T04:25:28.961Z,11.07
2019-06-07T04:26:30.917Z,11.10
2019-06-07T04:27:28.194Z,11.11
2019-06-07T04:29:23.796Z,11.16
2019-06-07T04:29:33.959Z,11.17
2019-06-07T04:30:29.422Z,11.24
2019-06-07T04:31:28.383Z,11.24
2019-06-07T04:32:29.788Z,11.19
2019-06-07T04:33:28.752Z,11.29
2019-06-07T04:34:29.319Z,11.21
2019-06-07T04:35:31.464Z,11.35
2019-06-07T04:36:44.153Z,11.36
2019-06-07T04:37:28.479Z,11.39
2019-06-07T04:38:29.496Z,11.46
2019-06-07T04:39:31.108Z,11.43
2019-06-07T04:40:30.704Z,11.44
2019-06-07T04:41:28.677Z,11.50
2019-06-07T04:42:29.971Z,11.49
2019-06-07T04:43:31.020Z,11.49
2019-06-07T04:44:28.862Z,11.62
2019-06-07T04:45:33.847Z,11.57
2019-06-07T04:46:28.924Z,11.57
2019-06-07T04:47:29.669Z,11.65
2019-06-07T04:48:30.916Z,11.71
2019-06-07T04:49:29.883Z,11.80
2019-06-07T04:50:30.959Z,11.89
2019-06-07T04:51:30.186Z,11.96
2019-06-07T04:52:29.948Z,11.96
2019-06-07T04:53:30.856Z,12.11
2019-06-07T04:54:31.099Z,12.09
2019-06-07T04:55:29.106Z,12.24
2019-06-07T04:56:29.986Z,12.27
2019-06-07T04:57:32.012Z,12.34
2019-06-07T04:58:30.437Z,12.41
2019-06-07T05:00:09.468Z,12.52
2019-06-07T05:00:59.256Z,12.44
2019-06-07T05:01:30.688Z,12.51
2019-06-07T05:02:29.534Z,12.63
2019-06-07T05:03:31.386Z,12.69
2019-06-07T05:04:31.444Z,12.79
2019-06-07T05:05:29.345Z,12.79
2019-06-07T05:06:30.066Z,12.84
2019-06-07T05:07:30.952Z,12.93
2019-06-07T05:08:31.481Z,12.97
2019-06-07T05:09:30.130Z,13.03
2019-06-07T05:10:30.622Z,13.00
2019-06-07T05:11:31.629Z,13.07
2019-06-07T05:12:30.017Z,13.15
2019-06-07T05:13:31.499Z,13.24
2019-06-07T05:14:32.533Z,13.24
2019-06-07T05:15:29.757Z,13.29
2019-06-07T05:16:30.644Z,13.36
2019-06-07T05:17:31.283Z,13.36
2019-06-07T05:18:29.941Z,13.37
2019-06-07T05:19:30.598Z,13.36
2019-06-07T05:20:29.999Z,13.38
2019-06-07T05:21:49.281Z,13.44
2019-06-07T05:22:31.538Z,13.54
2019-06-07T05:24:03.809Z,13.55
2019-06-07T05:24:30.725Z,13.49
2019-06-07T05:25:31.830Z,13.51
2019-06-07T05:26:30.561Z,13.52
2019-06-07T05:27:32.586Z,13.55
2019-06-07T05:28:30.386Z,13.52
2019-06-07T05:29:30.817Z,13.52
2019-06-07T05:31:31.180Z,13.56
2019-06-07T05:32:32.909Z,13.65
2019-06-07T05:33:31.129Z,13.63
2019-06-07T05:34:32.269Z,13.70
2019-06-07T05:35:30.726Z,13.74
2019-06-07T05:36:31.481Z,13.65
2019-06-07T05:37:32.542Z,13.69
2019-06-07T05:38:31.047Z,13.84
2019-06-07T05:39:32.116Z,13.87
2019-06-07T05:40:32.962Z,13.99
2019-06-07T05:41:32.289Z,14.12
2019-06-07T05:42:32.122Z,14.12
2019-06-07T05:43:34.929Z,14.12
2019-06-07T05:44:31.624Z,14.17
2019-06-07T05:45:32.336Z,14.20
2019-06-07T05:46:33.909Z,14.21
2019-06-07T05:47:31.794Z,14.25
2019-06-07T05:48:31.822Z,14.29
2019-06-07T05:49:32.893Z,14.25
2019-06-07T05:50:43.653Z,14.21
2019-06-07T05:51:32.243Z,14.19
2019-06-07T05:52:33.228Z,14.19
2019-06-07T05:53:32.813Z,14.25
2019-06-07T05:54:34.689Z,14.16
2019-06-07T05:55:32.722Z,14.21
2019-06-07T05:56:33.206Z,14.29
2019-06-07T05:57:35.881Z,14.35
2019-06-07T05:58:32.721Z,14.21
2019-06-07T05:59:33.403Z,14.20
2019-06-07T06:00:34.583Z,14.17
2019-06-07T06:01:58.938Z,14.25
2019-06-07T06:02:34.601Z,14.37
2019-06-07T06:03:34.580Z,14.38
2019-06-07T06:04:33.741Z,14.39
2019-06-07T06:05:36.383Z,14.43
2019-06-07T06:06:33.790Z,14.39
2019-06-07T06:07:34.753Z,14.44
2019-06-07T06:08:36.100Z,14.50
2019-06-07T06:09:32.405Z,14.49
2019-06-07T06:10:32.454Z,14.38
2019-06-07T06:11:45.621Z,14.42
2019-06-07T06:12:38.294Z,14.35
2019-06-07T06:13:32.579Z,14.35
2019-06-07T06:14:32.655Z,14.47
2019-06-07T06:15:42.146Z,14.52
2019-06-07T06:16:32.727Z,14.49
2019-06-07T06:17:32.779Z,14.62
2019-06-07T06:18:32.826Z,14.62
2019-06-07T06:19:32.895Z,14.71
2019-06-07T06:20:46.238Z,14.57
2019-06-07T06:21:32.973Z,14.61
2019-06-07T06:22:33.036Z,14.65
2019-06-07T06:23:33.086Z,14.71
2019-06-07T06:24:33.233Z,14.72
2019-06-07T06:25:34.268Z,14.86
2019-06-07T06:26:33.221Z,14.87
2019-06-07T06:28:33.323Z,14.88
2019-06-07T06:29:33.391Z,14.80
2019-06-07T06:30:33.421Z,14.81
2019-06-07T06:31:33.482Z,14.72
2019-06-07T06:32:48.853Z,14.80
2019-06-07T06:33:34.947Z,14.88
2019-06-07T06:34:33.645Z,14.93
2019-06-07T06:35:33.670Z,14.91
2019-06-07T06:36:33.717Z,15.05
2019-06-07T06:37:33.764Z,14.95
2019-06-07T06:38:33.811Z,15.02
2019-06-07T06:39:33.908Z,15.08
2019-06-07T06:40:33.912Z,15.19
2019-06-07T06:41:46.123Z,15.27
2019-06-07T06:42:34.018Z,15.35
2019-06-07T06:43:34.057Z,15.48
2019-06-07T06:44:34.146Z,15.52
2019-06-07T06:45:34.158Z,15.52
2019-06-07T06:46:40.975Z,15.72
2019-06-07T06:47:34.257Z,15.75
2019-06-07T06:48:34.314Z,15.79
2019-06-07T06:49:34.524Z,15.67
2019-06-07T06:50:34.426Z,15.70
2019-06-07T06:51:34.452Z,15.67
2019-06-07T06:52:34.510Z,15.72
2019-06-07T06:53:34.555Z,15.75
2019-06-07T06:54:41.001Z,15.75
2019-06-07T06:55:34.680Z,15.93
2019-06-07T06:56:34.750Z,15.89
2019-06-07T06:57:34.755Z,15.97
2019-06-07T06:59:18.824Z,15.92
2019-06-07T06:59:39.410Z,15.97
2019-06-07T07:00:48.387Z,15.99
2019-06-07T07:01:34.963Z,15.86
2019-06-07T07:02:35.006Z,15.88
2019-06-07T07:04:07.248Z,16.09
2019-06-07T07:04:35.104Z,17.03
2019-06-07T07:05:35.173Z,17.53
2019-06-07T07:06:35.217Z,17.91
2019-06-07T07:07:35.261Z,18.29
2019-06-07T07:08:35.305Z,18.82
2019-06-07T07:09:35.355Z,19.13
2019-06-07T07:10:35.445Z,19.14
2019-06-07T07:11:52.278Z,18.76
2019-06-07T07:12:35.508Z,18.36
2019-06-07T07:13:35.555Z,17.85
2019-06-07T07:14:35.612Z,17.44
2019-06-07T07:15:35.683Z,17.18
2019-06-07T07:16:35.857Z,17.73
2019-06-07T07:17:50.761Z,18.62
2019-06-07T07:18:35.821Z,19.23
2019-06-07T07:19:35.860Z,19.84
2019-06-07T07:20:35.918Z,20.41
2019-06-07T07:21:35.985Z,20.80
2019-06-07T07:22:36.020Z,20.93
2019-06-07T07:23:36.120Z,21.24
2019-06-07T07:24:36.126Z,21.60
2019-06-07T07:25:36.170Z,21.78
2019-06-07T07:26:36.239Z,22.17
2019-06-07T07:27:36.261Z,22.16
2019-06-07T07:28:36.328Z,22.31
2019-06-07T07:29:36.368Z,22.67
2019-06-07T07:30:37.513Z,22.65
2019-06-07T07:31:36.495Z,22.64
2019-06-07T07:32:36.540Z,22.78
2019-06-07T07:34:37.376Z,22.54
2019-06-07T07:35:36.676Z,22.41
2019-06-07T07:36:39.707Z,22.16
2019-06-07T07:37:36.792Z,22.13
2019-06-07T07:38:36.830Z,22.35
2019-06-07T07:39:36.903Z,22.28
2019-06-07T07:40:57.029Z,22.13
2019-06-07T07:41:37.011Z,22.28
2019-06-07T07:42:37.043Z,22.31
2019-06-07T07:43:37.135Z,22.54
2019-06-07T07:44:37.140Z,22.71
2019-06-07T07:45:37.210Z,22.77
2019-06-07T07:46:37.265Z,22.92
2019-06-07T07:47:55.948Z,22.69
2019-06-07T07:48:37.374Z,22.89
2019-06-07T07:49:37.406Z,22.86
2019-06-07T07:50:37.456Z,23.07
2019-06-07T07:51:37.533Z,23.39
2019-06-07T07:52:37.569Z,23.38
2019-06-07T07:53:48.623Z,23.55
2019-06-07T07:54:37.668Z,23.71
2019-06-07T07:55:37.891Z,23.79
2019-06-07T07:56:37.790Z,24.00
2019-06-07T07:57:37.829Z,23.71
2019-06-07T07:58:37.877Z,23.47
2019-06-07T07:59:42.197Z,22.94
2019-06-07T08:00:52.587Z,23.15
2019-06-07T08:01:38.075Z,23.09
2019-06-07T08:02:38.110Z,23.23
2019-06-07T08:03:38.146Z,22.52
2019-06-07T08:05:13.610Z,22.23
2019-06-07T08:05:43.148Z,22.31
2019-06-07T08:06:38.317Z,22.52
2019-06-07T08:07:38.507Z,22.62
2019-06-07T08:08:38.412Z,22.90
2019-06-07T08:09:38.457Z,22.75
2019-06-07T08:10:38.511Z,22.68
2019-06-07T08:11:38.568Z,23.02
2019-06-07T08:13:00.423Z,23.26
2019-06-07T08:13:38.667Z,23.46
2019-06-07T08:14:38.736Z,23.94
2019-06-07T08:15:38.773Z,24.01
2019-06-07T08:16:38.835Z,23.97
2019-06-07T08:17:38.901Z,24.05
2019-06-07T08:18:38.938Z,23.62
2019-06-07T08:19:38.985Z,23.45
2019-06-07T08:20:39.041Z,23.77
2019-06-07T08:21:39.105Z,24.16
2019-06-07T08:22:39.166Z,24.49
2019-06-07T08:23:39.198Z,24.79
2019-06-07T08:24:39.254Z,24.77
2019-06-07T08:25:39.410Z,24.37
2019-06-07T08:26:39.376Z,24.16
2019-06-07T08:27:39.432Z,24.24
2019-06-07T08:28:39.472Z,23.42
2019-06-07T08:29:45.118Z,21.92
2019-06-07T08:30:50.712Z,21.39
2019-06-07T08:31:39.627Z,21.48
2019-06-07T08:32:39.745Z,21.39
2019-06-07T08:33:39.737Z,21.81
2019-06-07T08:34:39.793Z,21.82
2019-06-07T08:36:42.332Z,21.76
2019-06-07T08:38:15.002Z,22.39
2019-06-07T08:38:47.873Z,22.86
2019-06-07T08:39:40.086Z,23.14
2019-06-07T08:40:40.142Z,21.74
2019-06-07T08:41:54.146Z,20.95
2019-06-07T08:42:59.780Z,20.39
2019-06-07T08:43:40.269Z,20.10
2019-06-07T08:44:40.325Z,19.66
2019-06-07T08:45:40.388Z,19.69
2019-06-07T08:46:40.467Z,20.24
2019-06-07T08:47:40.588Z,20.89
2019-06-07T08:48:40.538Z,20.65
2019-06-07T08:49:40.611Z,20.72
2019-06-07T08:50:40.652Z,19.57
2019-06-07T08:51:40.696Z,19.23
2019-06-07T08:52:40.776Z,19.15
2019-06-07T08:53:40.804Z,19.18
2019-06-07T08:54:40.928Z,19.08
2019-06-07T08:55:40.907Z,19.43
2019-06-07T08:56:41.038Z,19.90
2019-06-07T08:57:41.035Z,20.58
2019-06-07T08:58:41.082Z,20.96
2019-06-07T08:59:41.156Z,20.51
2019-06-07T09:00:46.205Z,20.09
2019-06-07T09:01:41.225Z,19.61
2019-06-07T09:02:41.280Z,19.40
2019-06-07T09:03:41.362Z,19.32
2019-06-07T09:04:41.383Z,19.75
2019-06-07T09:05:41.434Z,19.72
2019-06-07T09:07:02.577Z,19.83
2019-06-07T09:07:41.557Z,20.42
2019-06-07T09:08:41.615Z,21.01
2019-06-07T09:09:41.736Z,21.60
2019-06-07T09:10:42.457Z,22.19
2019-06-07T09:11:41.761Z,21.14
2019-06-07T09:12:41.806Z,18.90
2019-06-07T09:13:41.885Z,18.52
2019-06-07T09:14:58.676Z,18.82
2019-06-07T09:15:41.964Z,19.08
2019-06-07T09:16:42.029Z,19.48
2019-06-07T09:18:29.686Z,19.23
2019-06-07T09:18:44.769Z,18.92
2019-06-07T09:19:42.189Z,18.86
2019-06-07T09:20:42.235Z,18.67
2019-06-07T09:21:42.288Z,18.92
2019-06-07T09:22:42.331Z,19.55
2019-06-07T09:23:42.415Z,20.06
2019-06-07T09:24:42.487Z,19.95
2019-06-07T09:25:56.584Z,19.13
2019-06-07T09:26:42.648Z,18.55
2019-06-07T09:27:42.616Z,18.87
2019-06-07T09:28:42.650Z,19.54
2019-06-07T09:29:42.758Z,20.24
2019-06-07T09:30:42.759Z,19.65
2019-06-07T09:31:52.751Z,18.74
2019-06-07T09:32:42.866Z,18.00
2019-06-07T09:33:42.919Z,17.63
2019-06-07T09:34:42.995Z,17.78
2019-06-07T09:35:43.015Z,17.54
2019-06-07T09:36:43.087Z,17.84
2019-06-07T09:38:43.206Z,18.39
2019-06-07T09:39:43.243Z,18.97
2019-06-07T09:40:43.310Z,18.97
2019-06-07T09:41:49.529Z,19.14
2019-06-07T09:42:43.387Z,18.67
2019-06-07T09:44:43.488Z,18.22
2019-06-07T09:45:43.570Z,17.97
2019-06-07T09:46:43.651Z,17.59
2019-06-07T09:47:43.643Z,17.62
2019-06-07T09:49:43.773Z,17.81
2019-06-07T09:50:43.821Z,18.22
2019-06-07T09:51:43.848Z,18.10
2019-06-07T09:52:57.785Z,17.82
2019-06-07T09:53:43.965Z,17.69
2019-06-07T09:55:05.776Z,18.15
2019-06-07T09:55:44.095Z,18.79
2019-06-07T09:56:44.111Z,19.08
2019-06-07T09:57:44.239Z,19.46
2019-06-07T09:58:53.731Z,19.43
2019-06-07T09:59:44.282Z,19.08
2019-06-07T10:00:44.360Z,18.84
2019-06-07T10:01:44.382Z,18.54
2019-06-07T10:02:44.452Z,18.15
2019-06-07T10:03:44.492Z,18.21
2019-06-07T10:04:44.527Z,18.92
2019-06-07T10:05:44.611Z,19.84
2019-06-07T10:06:44.696Z,20.39
2019-06-07T10:07:59.972Z,20.47
2019-06-07T10:10:44.868Z,19.06
2019-06-07T10:11:44.890Z,19.15
2019-06-07T10:12:44.941Z,19.18
2019-06-07T10:13:45.039Z,19.57
2019-06-07T10:14:45.397Z,19.38
2019-06-07T10:15:45.132Z,19.17
2019-06-07T10:16:46.751Z,19.38
2019-06-07T10:17:45.207Z,20.23
2019-06-07T10:18:45.271Z,20.93
2019-06-07T10:19:45.318Z,20.65
2019-06-07T10:20:45.396Z,19.61
2019-06-07T10:21:45.416Z,19.47
2019-06-07T10:22:45.474Z,19.36
2019-06-07T10:23:45.520Z,19.50
2019-06-07T10:24:45.576Z,20.09
2019-06-07T10:25:45.642Z,20.34
2019-06-07T10:26:45.701Z,20.59
2019-06-07T10:27:45.732Z,20.35
2019-06-07T10:28:45.820Z,20.54
2019-06-07T10:29:45.840Z,20.72
2019-06-07T10:30:45.908Z,20.90
2019-06-07T10:31:46.045Z,20.95
2019-06-07T10:32:45.999Z,20.34
2019-06-07T10:33:46.045Z,19.95
2019-06-07T10:34:46.117Z,20.18
2019-06-07T10:35:46.160Z,20.72
2019-06-07T10:36:46.268Z,20.65
2019-06-07T10:37:46.265Z,20.21
2019-06-07T10:38:46.419Z,20.68
2019-06-07T10:39:48.963Z,20.77
2019-06-07T10:40:46.419Z,21.04
2019-06-07T10:41:46.506Z,21.91
2019-06-07T10:42:46.536Z,21.88
2019-06-07T10:43:46.614Z,21.64
2019-06-07T10:44:46.632Z,22.07
2019-06-07T10:45:46.709Z,22.64
2019-06-07T10:46:46.758Z,22.41
2019-06-07T10:47:46.802Z,21.61
2019-06-07T10:48:46.857Z,20.31
2019-06-07T10:49:46.910Z,20.12
2019-06-07T10:50:46.968Z,20.09
2019-06-07T10:51:47.035Z,20.00
2019-06-07T10:52:47.063Z,20.06
2019-06-07T10:53:47.134Z,20.38
2019-06-07T10:54:47.172Z,20.89
2019-06-07T10:55:47.221Z,21.64
2019-06-07T10:56:47.314Z,21.51
2019-06-07T10:57:47.335Z,20.90
2019-06-07T10:58:47.402Z,20.09
2019-06-07T10:59:47.442Z,20.08
2019-06-07T11:00:47.502Z,20.28
2019-06-07T11:01:47.653Z,20.68
2019-06-07T11:02:47.627Z,20.95
2019-06-07T11:03:47.655Z,20.95
2019-06-07T11:04:47.708Z,20.83
2019-06-07T11:05:47.769Z,20.72
2019-06-07T11:06:47.849Z,21.11
2019-06-07T11:07:47.946Z,21.56
2019-06-07T11:08:47.919Z,21.39
2019-06-07T11:10:02.890Z,21.75
2019-06-07T11:10:48.030Z,21.94
2019-06-07T11:11:48.090Z,21.04
2019-06-07T11:12:48.178Z,20.64
2019-06-07T11:13:48.190Z,20.87
2019-06-07T11:14:48.250Z,21.11
2019-06-07T11:15:48.357Z,21.60
2019-06-07T11:16:48.352Z,22.32
2019-06-07T11:17:48.428Z,22.50
2019-06-07T11:18:48.467Z,21.75
2019-06-07T11:19:48.509Z,21.64
2019-06-07T11:20:48.564Z,21.29
2019-06-07T11:21:48.620Z,21.23
2019-06-07T11:22:48.691Z,21.17
2019-06-07T11:23:48.782Z,21.20
2019-06-07T11:24:48.785Z,21.94
2019-06-07T11:25:48.840Z,22.06
2019-06-07T11:26:48.893Z,21.90
2019-06-07T11:27:48.972Z,21.61
2019-06-07T11:28:49.013Z,21.56
2019-06-07T11:29:49.064Z,21.50
2019-06-07T11:30:49.106Z,21.06
2019-06-07T11:31:49.157Z,21.23
2019-06-07T11:32:49.237Z,20.81
2019-06-07T11:33:49.290Z,21.20
2019-06-07T11:34:49.330Z,21.14
2019-06-07T11:35:49.374Z,20.90
2019-06-07T11:36:51.149Z,20.90
2019-06-07T11:37:49.522Z,21.26
2019-06-07T11:38:49.538Z,21.97
2019-06-07T11:39:49.590Z,22.53
2019-06-07T11:40:50.515Z,22.04
2019-06-07T11:41:49.816Z,22.27
2019-06-07T11:42:52.666Z,22.39
2019-06-07T11:43:49.805Z,22.65
2019-06-07T11:44:56.936Z,22.68
2019-06-07T11:45:49.927Z,22.75
2019-06-07T11:46:49.972Z,23.05
2019-06-07T11:47:50.066Z,23.79
2019-06-07T11:48:50.113Z,24.05
2019-06-07T11:49:50.157Z,24.08
2019-06-07T11:50:50.187Z,23.52
2019-06-07T11:51:50.239Z,23.49
2019-06-07T11:52:50.309Z,23.71
2019-06-07T11:53:50.370Z,24.00
2019-06-07T11:54:50.443Z,24.35
2019-06-07T11:55:50.461Z,24.60
2019-06-07T11:56:50.511Z,24.45
2019-06-07T11:57:50.570Z,24.52
2019-06-07T11:58:50.629Z,24.95
2019-06-07T11:59:50.751Z,25.06
2019-06-07T12:00:50.738Z,24.61
2019-06-07T12:01:50.791Z,23.76
2019-06-07T12:02:50.854Z,23.45
2019-06-07T12:03:50.940Z,23.35
2019-06-07T12:04:50.998Z,23.52
2019-06-07T12:05:51.034Z,23.72
2019-06-07T12:06:51.079Z,24.13
2019-06-07T12:07:51.127Z,24.27
2019-06-07T12:08:51.215Z,23.87
2019-06-07T12:09:56.348Z,23.83
2019-06-07T12:10:51.293Z,24.17
2019-06-07T12:11:51.352Z,24.42
2019-06-07T12:12:51.404Z,24.32
2019-06-07T12:13:51.512Z,23.98
2019-06-07T12:14:51.521Z,24.17
2019-06-07T12:15:51.603Z,24.68
2019-06-07T12:16:51.639Z,25.32
2019-06-07T12:17:51.687Z,25.61
2019-06-07T12:18:51.761Z,25.82
2019-06-07T12:19:51.802Z,25.93
2019-06-07T12:20:51.865Z,25.94
2019-06-07T12:21:51.918Z,25.25
2019-06-07T12:22:51.989Z,24.45
2019-06-07T12:23:52.046Z,23.87
2019-06-07T12:24:52.100Z,23.68
2019-06-07T12:25:52.139Z,23.76
2019-06-07T12:26:52.217Z,24.02
2019-06-07T12:27:52.260Z,24.45
2019-06-07T12:28:52.328Z,24.68
2019-06-07T12:29:52.402Z,24.57
2019-06-07T12:30:55.099Z,24.80
2019-06-07T12:31:52.494Z,25.02
2019-06-07T12:32:52.537Z,24.82
2019-06-07T12:33:52.631Z,25.07
2019-06-07T12:34:52.698Z,25.01
2019-06-07T12:35:52.721Z,24.88
2019-06-07T12:36:52.779Z,24.31
2019-06-07T12:37:52.889Z,24.20
2019-06-07T12:38:52.882Z,24.02
2019-06-07T12:39:52.968Z,24.07
2019-06-07T12:40:57.729Z,24.16
2019-06-07T12:41:53.064Z,24.38
2019-06-07T12:42:53.134Z,24.82
2019-06-07T12:43:53.178Z,25.17
2019-06-07T12:44:53.240Z,25.27
2019-06-07T12:45:53.286Z,25.62
2019-06-07T12:46:53.342Z,25.47
2019-06-07T12:47:53.408Z,25.13
2019-06-07T12:48:53.480Z,25.27
2019-06-07T12:49:53.532Z,25.34
2019-06-07T12:50:53.582Z,25.25
2019-06-07T12:51:53.631Z,25.43
2019-06-07T12:52:53.696Z,25.71
2019-06-07T12:53:53.747Z,25.94
2019-06-07T12:54:53.832Z,26.36
2019-06-07T12:55:53.863Z,26.54
2019-06-07T12:56:53.927Z,26.11
2019-06-07T12:57:53.981Z,25.39
2019-06-07T12:58:54.042Z,24.98
2019-06-07T12:59:54.132Z,24.98
2019-06-07T13:00:54.175Z,25.09
2019-06-07T13:01:54.215Z,25.15